createdAt,value
2017-08-02T00:01:01.674Z,24.97
2017-08-02T00:03:36.263Z,23.23
2017-08-02T00:06:06.565Z,26.60
2017-08-02T00:11:28.298Z,26.50
2017-08-02T00:37:52.684Z,23.73
2017-08-02T00:47:04.002Z,23.07
2017-08-02T00:55:10.436Z,27.03
2017-08-02T01:00:25.661Z,26.77
2017-08-02T01:02:59.470Z,25.20
2017-08-02T01:05:31.586Z,24.63
2017-08-02T01:08:02.351Z,22.67
2017-08-02T01:13:07.164Z,25.40
2017-08-02T01:15:37.642Z,25.53
2017-08-02T01:18:06.908Z,24.57
2017-08-02T01:20:38.290Z,24.77
2017-08-02T01:23:09.417Z,25.97
2017-08-02T01:25:39.087Z,25.13
2017-08-02T01:28:09.910Z,23.20
2017-08-02T01:30:40.072Z,23.63
2017-08-02T01:33:09.510Z,26.27
2017-08-02T01:35:39.106Z,25.13
2017-08-02T01:38:08.012Z,24.43
2017-08-02T01:40:38.292Z,24.47
2017-08-02T01:43:09.277Z,29.07
2017-08-02T01:45:39.491Z,24.07
2017-08-02T02:16:53.972Z,24.03
2017-08-02T02:28:17.869Z,23.43
2017-08-02T02:30:54.128Z,27.27
2017-08-02T02:33:26.312Z,25.77
2017-08-02T02:47:02.784Z,25.77
2017-08-02T03:07:07.755Z,25.30
2017-08-02T03:09:58.633Z,26.00
2017-08-02T03:28:14.222Z,28.13
2017-08-02T03:30:50.086Z,24.47
2017-08-02T03:33:24.669Z,27.97
2017-08-02T03:38:31.809Z,28.43
2017-08-02T03:41:01.288Z,25.17
2017-08-02T03:46:31.694Z,25.53
2017-08-02T03:57:41.739Z,25.03
2017-08-02T04:00:11.469Z,27.33
2017-08-02T04:05:20.724Z,26.53
2017-08-02T04:07:50.720Z,25.37
2017-08-02T04:10:19.455Z,27.43
2017-08-02T04:12:48.212Z,28.23
2017-08-02T04:15:17.365Z,27.90
2017-08-02T04:17:46.005Z,26.10
2017-08-02T04:20:15.019Z,27.17
2017-08-02T04:22:44.968Z,27.87
2017-08-02T04:25:52.516Z,36.47
2017-08-02T04:31:00.780Z,28.40
2017-08-02T04:33:39.726Z,25.67
2017-08-02T04:51:40.396Z,24.80
2017-08-02T04:54:16.782Z,22.83
2017-08-02T04:56:52.159Z,24.47
2017-08-02T04:59:22.244Z,21.47
2017-08-02T05:02:08.593Z,21.60
2017-08-02T05:16:38.536Z,24.07
2017-08-02T05:19:07.130Z,19.93
2017-08-02T05:21:37.545Z,20.37
2017-08-02T05:24:12.830Z,19.00
2017-08-02T05:26:43.860Z,19.43
2017-08-02T05:31:52.697Z,20.40
2017-08-02T05:34:42.217Z,22.57
2017-08-02T05:37:10.786Z,18.10
2017-08-02T05:45:14.717Z,20.60
2017-08-02T05:47:47.676Z,20.73
2017-08-02T05:50:16.512Z,20.70
2017-08-02T05:55:20.833Z,19.83
2017-08-02T05:57:49.476Z,20.23
2017-08-02T06:00:24.673Z,19.17
2017-08-02T06:02:54.514Z,16.50
2017-08-02T06:05:23.581Z,16.83
2017-08-02T06:07:52.299Z,17.97
2017-08-02T06:10:31.663Z,17.83
2017-08-02T06:13:00.293Z,19.80
2017-08-02T06:15:35.345Z,15.50
2017-08-02T06:21:02.628Z,14.97
2017-08-02T06:26:06.956Z,13.70
2017-08-02T06:28:37.432Z,14.97
2017-08-02T06:51:09.065Z,14.63
2017-08-02T06:53:45.452Z,12.30
2017-08-02T07:23:05.542Z,10.30
2017-08-02T07:26:23.307Z,9.47
2017-08-02T08:18:10.127Z,7.40
2017-08-02T08:27:48.655Z,7.50
2017-08-02T08:36:46.903Z,5.50
2017-08-02T08:39:45.126Z,5.20
2017-08-02T08:42:15.825Z,7.83
2017-08-02T08:44:45.385Z,5.53
2017-08-02T08:47:18.856Z,4.77
2017-08-02T08:49:49.878Z,5.87
2017-08-02T08:52:23.810Z,5.80
2017-08-02T08:54:52.625Z,5.17
2017-08-02T08:57:23.307Z,5.30
2017-08-02T08:59:58.818Z,9.57
2017-08-02T09:02:31.420Z,6.60
2017-08-02T09:13:54.725Z,4.43
2017-08-02T09:16:24.545Z,6.77
2017-08-02T09:18:53.447Z,5.80
2017-08-02T09:21:22.916Z,7.00
2017-08-02T09:24:11.270Z,5.10
2017-08-02T09:27:24.746Z,5.10
2017-08-02T09:29:54.276Z,11.93
2017-08-02T09:32:41.529Z,11.23
2017-08-02T09:35:10.119Z,4.77
2017-08-02T09:37:38.956Z,6.17
2017-08-02T09:40:07.418Z,5.47
2017-08-02T09:42:43.610Z,7.50
2017-08-02T09:51:22.900Z,6.53
2017-08-02T09:53:51.517Z,5.17
2017-08-02T09:56:20.004Z,4.30
2017-08-02T09:58:51.906Z,4.80
2017-08-02T10:25:05.998Z,21.60
2017-08-02T10:27:34.577Z,6.17
2017-08-02T10:30:03.344Z,10.80
2017-08-02T10:32:31.897Z,9.77
2017-08-02T10:35:10.212Z,5.80
2017-08-02T10:37:43.387Z,7.53
2017-08-02T10:40:21.773Z,6.07
2017-08-02T10:46:34.327Z,7.20
2017-08-02T15:53:32.182Z,14.23
2017-08-02T15:56:00.798Z,16.30
2017-08-02T15:58:29.303Z,18.53
2017-08-02T16:00:57.802Z,21.50
2017-08-02T16:03:26.285Z,13.27
2017-08-02T16:05:54.813Z,20.23
2017-08-02T16:08:23.382Z,11.87
2017-08-02T16:10:51.715Z,12.80
2017-08-02T16:13:20.206Z,12.60
2017-08-02T16:15:48.713Z,13.50
2017-08-02T16:18:17.228Z,12.90
2017-08-02T16:20:45.719Z,8.70
2017-08-02T16:23:14.267Z,7.93
2017-08-02T16:25:42.779Z,8.00
2017-08-02T16:28:11.237Z,8.30
2017-08-02T16:30:39.742Z,15.60
2017-08-02T16:33:08.367Z,7.77
2017-08-02T16:35:36.907Z,8.40
2017-08-02T16:38:05.469Z,7.60
2017-08-02T16:40:33.913Z,7.63
2017-08-02T16:43:02.350Z,8.30
2017-08-02T16:45:30.865Z,8.10
2017-08-02T16:47:59.359Z,7.60
2017-08-02T16:50:27.808Z,8.90
2017-08-02T16:52:56.323Z,9.40
2017-08-02T16:55:24.747Z,11.37
2017-08-02T16:57:53.226Z,9.97
2017-08-02T17:00:21.693Z,7.73
2017-08-02T17:05:31.626Z,8.23
2017-08-02T17:08:00.322Z,7.10
2017-08-02T17:10:28.909Z,9.77
2017-08-02T17:12:57.550Z,7.70
2017-08-02T17:15:26.043Z,8.07
2017-08-02T17:17:54.461Z,7.50
2017-08-02T17:20:22.922Z,10.77
2017-08-02T17:22:51.364Z,10.33
2017-08-02T17:25:19.781Z,7.73
2017-08-02T17:27:48.277Z,9.20
2017-08-02T17:30:17.515Z,10.07
2017-08-02T17:32:47.854Z,10.60
2017-08-02T17:35:18.293Z,11.20
2017-08-02T17:37:47.014Z,15.63
2017-08-02T17:40:15.471Z,14.50
2017-08-02T17:42:43.998Z,9.77
2017-08-02T17:45:12.533Z,10.60
2017-08-02T17:47:41.036Z,20.27
2017-08-02T17:50:09.621Z,16.40
2017-08-02T17:52:38.133Z,13.67
2017-08-02T17:55:06.722Z,14.73
2017-08-02T17:57:35.275Z,13.20
2017-08-02T18:00:03.832Z,14.10
2017-08-02T18:02:32.432Z,14.07
2017-08-02T18:05:01.048Z,18.57
2017-08-02T18:07:29.520Z,12.50
2017-08-02T18:09:58.096Z,20.47
2017-08-02T18:12:26.621Z,12.53
2017-08-02T18:14:55.010Z,15.87
2017-08-02T18:17:23.748Z,16.47
2017-08-02T18:19:52.318Z,14.03
2017-08-02T18:22:21.987Z,14.33
2017-08-02T18:24:50.603Z,14.23
2017-08-02T18:27:19.042Z,12.13
2017-08-02T18:29:47.539Z,12.30
2017-08-02T18:32:16.197Z,11.03
2017-08-02T18:34:44.730Z,16.60
2017-08-02T18:37:28.109Z,11.57
2017-08-02T18:39:56.678Z,11.30
2017-08-02T18:42:30.740Z,11.20
2017-08-02T18:44:59.317Z,11.00
2017-08-02T18:47:27.812Z,9.30
2017-08-02T18:49:56.322Z,14.23
2017-08-02T18:52:24.946Z,14.00
2017-08-02T18:54:53.483Z,16.63
2017-08-02T18:57:21.984Z,9.60
2017-08-02T18:59:50.522Z,12.10
2017-08-02T19:02:19.031Z,12.63
2017-08-02T19:04:47.579Z,11.20
2017-08-02T19:07:16.159Z,13.33
2017-08-02T19:09:44.654Z,10.30
2017-08-02T19:12:13.142Z,10.83
2017-08-02T19:14:41.689Z,11.67
2017-08-02T19:17:10.211Z,14.00
2017-08-02T19:19:38.815Z,12.50
2017-08-02T19:22:07.584Z,12.70
2017-08-02T19:24:36.140Z,11.13
2017-08-02T19:27:04.687Z,11.60
2017-08-02T19:29:33.179Z,13.70
2017-08-02T19:32:01.704Z,14.87
2017-08-02T19:34:30.239Z,11.93
2017-08-02T19:36:58.791Z,14.10
2017-08-02T19:39:27.305Z,17.23
2017-08-02T19:41:55.790Z,14.67
2017-08-02T19:44:24.310Z,13.27
2017-08-02T19:46:52.987Z,17.33
2017-08-02T19:49:21.523Z,11.87
2017-08-02T19:51:50.089Z,13.73
2017-08-02T19:54:18.617Z,12.03
2017-08-02T19:56:47.126Z,13.83
2017-08-02T19:59:15.687Z,15.20
2017-08-02T20:01:44.128Z,13.90
2017-08-02T20:04:14.306Z,15.13
2017-08-02T20:06:42.862Z,12.03
2017-08-02T20:09:11.350Z,13.97
2017-08-02T20:11:39.784Z,12.13
2017-08-02T20:14:08.222Z,14.13
2017-08-02T20:16:36.861Z,10.90
2017-08-02T20:19:05.284Z,10.90
2017-08-02T20:21:33.738Z,10.20
2017-08-02T20:24:02.187Z,12.57
2017-08-02T20:26:30.648Z,9.90
2017-08-02T20:28:59.113Z,12.27
2017-08-02T20:31:27.605Z,16.00
2017-08-02T20:33:56.037Z,12.00
2017-08-02T20:36:24.503Z,14.40
2017-08-02T20:38:52.931Z,13.37
2017-08-02T20:41:21.387Z,13.67
2017-08-02T20:43:49.929Z,16.13
2017-08-02T20:46:18.362Z,13.93
2017-08-02T20:48:46.778Z,13.57
2017-08-02T20:51:15.273Z,16.57
2017-08-02T20:53:43.698Z,13.97
2017-08-02T20:56:12.222Z,16.40
2017-08-02T20:58:40.703Z,12.97
2017-08-02T21:01:09.142Z,12.33
2017-08-02T21:03:37.622Z,12.87
2017-08-02T21:06:06.069Z,12.60
2017-08-02T21:08:34.598Z,13.10
2017-08-02T21:11:03.027Z,14.50
2017-08-02T21:13:31.529Z,14.90
2017-08-02T21:15:59.965Z,15.57
2017-08-02T21:18:28.413Z,15.70
2017-08-02T21:20:56.700Z,14.93
2017-08-02T21:23:25.163Z,14.30
2017-08-02T21:25:53.602Z,19.67
2017-08-02T21:28:22.088Z,13.33
2017-08-02T21:30:50.396Z,14.77
2017-08-02T21:33:18.894Z,15.47
2017-08-02T21:35:47.342Z,14.83
2017-08-02T21:38:15.753Z,14.83
2017-08-02T21:40:44.185Z,13.37
2017-08-02T21:43:13.006Z,13.60
2017-08-02T21:45:41.458Z,17.33
2017-08-02T21:48:09.894Z,12.87
2017-08-02T21:50:38.401Z,11.90
2017-08-02T21:53:06.830Z,11.50
2017-08-02T21:55:35.295Z,14.23
2017-08-02T21:58:03.817Z,11.40
2017-08-02T22:00:32.274Z,13.60
2017-08-02T22:03:00.700Z,12.20
2017-08-02T22:05:29.185Z,12.63
2017-08-02T22:07:57.619Z,11.40
2017-08-02T22:10:26.038Z,13.33
2017-08-02T22:12:54.482Z,12.50
2017-08-02T22:15:22.905Z,13.70
2017-08-02T22:17:51.367Z,14.67
2017-08-02T22:20:19.882Z,19.57
2017-08-02T22:22:48.321Z,13.73
2017-08-02T22:25:16.794Z,19.20
2017-08-02T22:27:45.273Z,14.33
2017-08-02T22:30:13.711Z,13.67
2017-08-02T22:32:42.203Z,12.57
2017-08-02T22:35:10.668Z,16.73
2017-08-02T22:37:39.161Z,15.03
2017-08-02T22:40:07.687Z,12.57
2017-08-02T22:42:36.120Z,8.13
2017-08-02T22:45:04.614Z,13.30
2017-08-02T22:47:33.066Z,11.10
2017-08-02T22:50:01.583Z,9.60
2017-08-02T22:52:30.112Z,10.93
2017-08-02T22:54:58.694Z,10.53
2017-08-02T22:57:27.188Z,9.20
2017-08-02T22:59:55.703Z,12.30
2017-08-02T23:02:24.137Z,8.33
2017-08-02T23:04:52.602Z,17.93
2017-08-02T23:07:21.134Z,9.63
2017-08-02T23:09:49.631Z,8.43
2017-08-02T23:12:18.059Z,8.73
2017-08-02T23:14:46.501Z,10.20
2017-08-02T23:17:14.999Z,11.23
2017-08-02T23:19:43.441Z,7.77
2017-08-02T23:22:11.962Z,12.00
2017-08-02T23:24:40.421Z,12.97
2017-08-02T23:27:08.854Z,8.03
2017-08-02T23:29:37.321Z,14.60
2017-08-02T23:32:05.789Z,9.83
2017-08-02T23:34:34.254Z,8.07
2017-08-02T23:37:02.818Z,10.47
2017-08-02T23:39:31.335Z,12.90
2017-08-02T23:41:59.833Z,10.30
2017-08-02T23:44:28.366Z,9.30
2017-08-02T23:46:56.785Z,9.03
2017-08-02T23:49:25.250Z,9.00
2017-08-02T23:51:53.752Z,10.50
2017-08-02T23:54:22.270Z,13.53
2017-08-02T23:56:50.713Z,9.00
2017-08-02T23:59:19.196Z,9.73
